createdAt,value
2022-09-22T00:02:42.332Z,5.28
2022-09-22T00:07:44.096Z,6.88
2022-09-22T00:12:47.284Z,4.63
2022-09-22T00:17:48.891Z,6.72
2022-09-22T00:22:51.243Z,5.97
2022-09-22T00:27:54.479Z,4.93
2022-09-22T00:32:56.229Z,5.85
2022-09-22T00:37:57.820Z,9.60
2022-09-22T00:43:21.122Z,6.00
2022-09-22T00:48:25.054Z,8.05
2022-09-22T00:53:27.201Z,7.75
2022-09-22T00:58:35.931Z,7.55
2022-09-22T01:03:39.279Z,4.25
2022-09-22T01:08:43.648Z,6.28
2022-09-22T01:13:59.451Z,6.07
2022-09-22T01:19:48.666Z,6.78
2022-09-22T01:25:09.773Z,6.15
2022-09-22T01:30:20.721Z,7.65
2022-09-22T01:35:35.557Z,6.28
2022-09-22T01:40:47.072Z,5.68
2022-09-22T01:45:49.753Z,6.57
2022-09-22T01:50:56.384Z,5.70
2022-09-22T01:56:02.956Z,13.80
2022-09-22T02:01:14.599Z,6.00
2022-09-22T02:06:23.207Z,12.38
2022-09-22T02:11:25.087Z,4.88
2022-09-22T02:16:27.689Z,4.97
2022-09-22T02:21:29.364Z,4.55
2022-09-22T02:26:34.124Z,4.90
2022-09-22T02:31:38.654Z,6.22
2022-09-22T02:37:37.689Z,4.90
2022-09-22T02:42:52.183Z,5.10
2022-09-22T02:48:02.016Z,6.50
2022-09-22T02:53:11.332Z,8.75
2022-09-22T02:58:15.286Z,5.28
2022-09-22T03:03:16.911Z,9.45
2022-09-22T03:08:18.548Z,5.82
2022-09-22T03:13:20.258Z,7.68
2022-09-22T03:18:21.993Z,7.28
2022-09-22T03:23:23.653Z,9.43
2022-09-22T03:28:25.355Z,9.85
2022-09-22T03:33:27.048Z,7.97
2022-09-22T03:38:28.756Z,8.23
2022-09-22T03:43:30.420Z,6.63
2022-09-22T03:48:32.034Z,10.15
2022-09-22T03:53:33.793Z,7.00
2022-09-22T03:58:36.571Z,8.13
2022-09-22T04:03:39.443Z,10.02
2022-09-22T04:08:41.079Z,8.88
2022-09-22T04:13:46.179Z,8.40
2022-09-22T04:18:48.284Z,7.80
2022-09-22T04:23:49.909Z,8.48
2022-09-22T04:28:51.554Z,9.60
2022-09-22T04:33:53.209Z,8.90
2022-09-22T04:38:55.420Z,9.60
2022-09-22T04:43:57.168Z,11.85
2022-09-22T04:48:58.852Z,10.40
2022-09-22T04:54:00.576Z,9.35
2022-09-22T04:59:02.757Z,16.48
2022-09-22T05:04:04.489Z,12.30
2022-09-22T05:09:06.215Z,12.00
2022-09-22T05:14:08.046Z,9.65
2022-09-22T05:19:10.171Z,10.50
2022-09-22T05:24:11.757Z,15.38
2022-09-22T05:29:13.382Z,12.98
2022-09-22T05:34:14.999Z,16.75
2022-09-22T05:39:16.638Z,16.35
2022-09-22T05:44:18.363Z,12.20
2022-09-22T05:49:19.967Z,21.15
2022-09-22T05:54:23.460Z,17.70
2022-09-22T05:59:25.196Z,16.85
2022-09-22T06:04:27.333Z,11.98
2022-09-22T06:09:28.945Z,13.77
2022-09-22T06:14:30.570Z,12.68
2022-09-22T06:19:32.764Z,12.60
2022-09-22T06:24:34.459Z,12.13
2022-09-22T06:29:38.000Z,13.40
2022-09-22T06:34:39.633Z,14.13
2022-09-22T06:39:41.226Z,20.67
2022-09-22T06:44:44.530Z,10.43
2022-09-22T06:49:46.777Z,12.57
2022-09-22T06:54:50.973Z,12.27
2022-09-22T06:59:54.356Z,13.02
2022-09-22T07:04:59.680Z,9.48
2022-09-22T07:10:01.378Z,9.85
2022-09-22T07:15:03.096Z,8.75
2022-09-22T07:20:05.713Z,9.43
2022-09-22T07:25:08.724Z,7.35
2022-09-22T07:30:10.953Z,6.90
2022-09-22T07:35:12.623Z,7.05
2022-09-22T07:40:14.730Z,6.35
2022-09-22T07:45:16.769Z,6.10
2022-09-22T07:50:18.501Z,6.75
2022-09-22T07:55:25.207Z,6.68
2022-09-22T08:00:33.002Z,6.82
2022-09-22T08:05:34.905Z,7.57
2022-09-22T08:10:36.533Z,5.53
2022-09-22T08:15:42.244Z,7.55
2022-09-22T08:20:45.074Z,4.05
2022-09-22T08:25:46.956Z,7.15
2022-09-22T08:30:49.028Z,9.98
2022-09-22T08:35:54.608Z,7.22
2022-09-22T08:41:17.570Z,4.50
2022-09-22T08:46:19.282Z,9.52
2022-09-22T08:51:46.156Z,11.18
2022-09-22T08:57:19.689Z,7.13
2022-09-22T09:02:41.999Z,6.78
2022-09-22T09:08:01.840Z,5.25
2022-09-22T09:13:22.228Z,4.38
2022-09-22T09:18:30.893Z,4.53
2022-09-22T09:29:16.974Z,5.45
2022-09-22T09:34:24.414Z,6.53
2022-09-22T09:39:30.717Z,4.55
2022-09-22T09:44:40.042Z,6.22
2022-09-22T09:49:41.755Z,4.53
2022-09-22T09:54:46.267Z,6.68
2022-09-22T10:00:28.183Z,7.30
2022-09-22T10:05:32.471Z,4.60
2022-09-22T10:10:41.356Z,6.15
2022-09-22T10:15:43.503Z,9.18
2022-09-22T10:20:45.152Z,4.40
2022-09-22T10:25:48.361Z,3.20
2022-09-22T10:31:04.912Z,5.65
2022-09-22T10:36:12.235Z,2.63
2022-09-22T10:41:23.313Z,4.70
2022-09-22T10:46:43.370Z,3.65
2022-09-22T10:52:09.400Z,3.38
2022-09-22T10:57:43.934Z,3.42
2022-09-22T11:03:05.491Z,2.65
2022-09-22T11:08:31.301Z,1.48
2022-09-22T11:13:41.910Z,4.03
2022-09-22T11:19:06.147Z,4.03
2022-09-22T11:24:32.456Z,3.78
2022-09-22T11:29:56.270Z,2.65
2022-09-22T11:35:25.575Z,2.70
2022-09-22T11:40:41.415Z,2.53
2022-09-22T11:45:54.356Z,1.83
2022-09-22T11:51:09.544Z,1.02
2022-09-22T11:56:33.393Z,1.33
2022-09-22T12:01:39.054Z,1.73
2022-09-22T12:06:44.998Z,1.00
2022-09-22T12:11:46.767Z,0.90
2022-09-22T12:16:51.414Z,1.48
2022-09-22T12:21:57.738Z,2.80
2022-09-22T12:27:11.363Z,1.05
2022-09-22T12:32:39.553Z,2.20
2022-09-22T12:37:41.260Z,3.20
2022-09-22T12:42:49.594Z,2.85
2022-09-22T12:47:53.928Z,3.47
2022-09-22T12:53:23.832Z,4.07
2022-09-22T12:58:28.491Z,2.10
2022-09-22T13:03:30.692Z,2.05
2022-09-22T13:08:32.661Z,1.10
2022-09-22T13:13:42.310Z,4.47
2022-09-22T13:18:46.872Z,2.72
2022-09-22T13:23:51.603Z,3.25
2022-09-22T13:29:05.323Z,1.70
2022-09-22T13:34:33.469Z,0.95
2022-09-22T13:39:42.231Z,1.15
2022-09-22T13:44:54.760Z,2.70
2022-09-22T13:50:03.284Z,1.15
2022-09-22T13:55:19.947Z,2.83
2022-09-22T14:00:26.448Z,1.15
2022-09-22T14:05:31.879Z,1.88
2022-09-22T14:10:34.102Z,1.50
2022-09-22T14:15:47.649Z,1.90
2022-09-22T14:20:49.378Z,1.13
2022-09-22T14:25:51.106Z,1.42
2022-09-22T14:30:53.061Z,1.30
2022-09-22T14:36:03.125Z,8.35
2022-09-22T14:41:22.428Z,3.60
2022-09-22T14:46:36.693Z,1.73
2022-09-22T14:51:38.340Z,1.02
2022-09-22T14:56:43.883Z,1.73
2022-09-22T15:02:07.314Z,3.33
2022-09-22T15:07:24.752Z,0.70
2022-09-22T15:12:49.354Z,2.45
2022-09-22T15:18:11.735Z,2.47
2022-09-22T15:23:16.548Z,1.02
2022-09-22T15:28:20.793Z,0.88
2022-09-22T15:33:22.661Z,2.72
2022-09-22T15:38:27.605Z,1.02
2022-09-22T15:43:31.090Z,1.85
2022-09-22T15:48:38.436Z,1.33
2022-09-22T15:53:41.655Z,4.05
2022-09-22T15:58:44.072Z,2.45
2022-09-22T16:03:46.380Z,1.85
2022-09-22T16:08:52.689Z,0.93
2022-09-22T16:13:58.244Z,2.17
2022-09-22T16:19:00.559Z,2.70
2022-09-22T16:24:08.650Z,2.63
2022-09-22T16:29:11.358Z,3.40
2022-09-22T16:34:13.056Z,1.58
2022-09-22T16:39:14.710Z,2.30
2022-09-22T16:44:16.448Z,2.22
2022-09-22T16:49:20.312Z,1.13
2022-09-22T16:54:22.097Z,1.35
2022-09-22T16:59:23.768Z,3.85
2022-09-22T17:04:25.395Z,3.22
2022-09-22T17:09:27.372Z,2.00
2022-09-22T17:14:32.517Z,1.08
2022-09-22T17:19:34.345Z,1.70
2022-09-22T17:24:35.994Z,2.05
2022-09-22T17:29:37.931Z,3.67
2022-09-22T17:34:41.187Z,2.28
2022-09-22T17:39:43.645Z,3.83
2022-09-22T17:44:45.284Z,4.50
2022-09-22T17:50:05.431Z,5.70
2022-09-22T17:55:12.671Z,5.55
2022-09-22T18:00:17.211Z,6.25
2022-09-22T18:05:21.422Z,6.10
2022-09-22T18:10:23.531Z,6.72
2022-09-22T18:15:26.773Z,10.43
2022-09-22T18:20:28.828Z,7.55
2022-09-22T18:25:31.723Z,7.63
2022-09-22T18:30:33.901Z,6.95
2022-09-22T18:35:35.497Z,9.77
2022-09-22T18:40:37.154Z,9.15
2022-09-22T18:45:38.844Z,7.05
2022-09-22T18:50:41.034Z,12.13
2022-09-22T18:55:42.620Z,8.13
2022-09-22T19:00:44.244Z,7.43
2022-09-22T19:05:45.852Z,8.25
2022-09-22T19:10:48.400Z,8.02
2022-09-22T19:15:54.077Z,11.55
2022-09-22T19:20:58.518Z,13.13
2022-09-22T19:26:00.144Z,11.93
2022-09-22T19:31:01.769Z,10.57
2022-09-22T19:36:03.705Z,11.57
2022-09-22T19:41:05.360Z,10.10
2022-09-22T19:46:07.187Z,9.52
2022-09-22T19:51:08.824Z,9.80
2022-09-22T19:56:10.432Z,12.93
2022-09-22T20:01:28.142Z,9.43
2022-09-22T20:06:30.136Z,10.02
2022-09-22T20:11:33.457Z,10.45
2022-09-22T20:16:35.066Z,9.82
2022-09-22T20:21:37.136Z,9.15
2022-09-22T20:26:38.852Z,10.23
2022-09-22T20:31:41.579Z,9.43
2022-09-22T20:36:43.433Z,8.57
2022-09-22T20:41:45.074Z,9.45
2022-09-22T20:46:49.825Z,10.85
2022-09-22T20:51:51.632Z,7.38
2022-09-22T20:56:53.397Z,10.65
2022-09-22T21:01:55.010Z,10.25
2022-09-22T21:06:57.473Z,8.32
2022-09-22T21:11:59.082Z,10.00
2022-09-22T21:17:06.273Z,9.52
2022-09-22T21:22:07.917Z,10.90
2022-09-22T21:27:09.526Z,11.00
2022-09-22T21:32:11.282Z,9.30
2022-09-22T21:37:14.532Z,11.70
2022-09-22T21:42:16.122Z,9.27
2022-09-22T21:47:17.722Z,7.28
2022-09-22T21:52:19.316Z,6.85
2022-09-22T21:57:20.899Z,7.65
2022-09-22T22:02:22.500Z,7.80
2022-09-22T22:07:24.119Z,8.40
2022-09-22T22:12:25.828Z,10.30
2022-09-22T22:17:27.444Z,8.68
2022-09-22T22:22:29.052Z,9.57
2022-09-22T22:27:30.687Z,12.57
2022-09-22T22:32:32.236Z,9.35
2022-09-22T22:37:33.858Z,8.43
2022-09-22T22:42:35.486Z,8.93
2022-09-22T22:47:37.099Z,9.35
2022-09-22T22:52:41.366Z,8.20
2022-09-22T22:57:42.982Z,7.95
2022-09-22T23:02:44.579Z,11.77
2022-09-22T23:07:46.177Z,10.15
2022-09-22T23:12:47.864Z,7.68
2022-09-22T23:17:49.612Z,13.13
2022-09-22T23:22:51.229Z,9.43
2022-09-22T23:27:52.980Z,7.78
2022-09-22T23:32:56.288Z,7.35
2022-09-22T23:37:58.238Z,6.70
2022-09-22T23:42:59.970Z,7.25
2022-09-22T23:48:01.776Z,7.45
2022-09-22T23:53:03.508Z,7.93
2022-09-22T23:58:05.347Z,6.53
